createdAt,value
2023-01-09T00:04:52.787Z,146.63158
2023-01-09T00:09:54.412Z,142.70968
2023-01-09T00:14:55.999Z,144.65147
2023-01-09T00:19:57.739Z,142.07074
2023-01-09T00:24:59.605Z,141.4359
2023-01-09T00:30:01.543Z,137.10345
2023-01-09T00:35:03.194Z,142.07074
2023-01-09T00:40:04.796Z,137.71069
2023-01-09T00:45:06.422Z,144.65147
2023-01-09T00:50:08.089Z,145.30719
2023-01-09T00:55:09.735Z,142.70968
2023-01-09T01:00:11.344Z,147.30033
2023-01-09T01:05:13.019Z,142.70968
2023-01-09T01:10:14.650Z,143.35275
2023-01-09T01:15:16.263Z,150.02007
2023-01-09T01:20:17.908Z,141.4359
2023-01-09T01:25:19.523Z,139.55556
2023-01-09T01:30:21.202Z,142.70968
2023-01-09T01:35:22.837Z,145.30719
2023-01-09T01:40:24.539Z,140.17834
2023-01-09T01:45:26.157Z,140.80511
2023-01-09T01:50:27.784Z,140.17834
2023-01-09T01:55:29.438Z,159.38462
2023-01-09T02:00:31.035Z,147.30033
2023-01-09T02:05:32.697Z,148.65116
2023-01-09T02:10:34.342Z,144.65147
2023-01-09T02:15:35.983Z,151.40741
2023-01-09T02:20:37.587Z,143.35275
2023-01-09T02:25:39.201Z,144
2023-01-09T02:30:40.869Z,152.81356
2023-01-09T02:35:42.489Z,148.65116
2023-01-09T02:40:44.116Z,176.45283
2023-01-09T02:45:45.760Z,187.47826
2023-01-09T02:50:47.405Z,179.1145
2023-01-09T02:55:49.160Z,154.9589
2023-01-09T03:00:50.906Z,159.38462
2023-01-09T03:05:52.818Z,158.63415
2023-01-09T03:10:54.604Z,153.52381
2023-01-09T03:15:56.217Z,154.9589
2023-01-09T03:20:57.808Z,185.56863
2023-01-09T03:25:59.493Z,185.56863
2023-01-09T03:31:01.200Z,180.01533
2023-01-09T03:36:02.807Z,248.9505
2023-01-09T03:41:04.422Z,243.02913
2023-01-09T03:46:06.246Z,206.12766
2023-01-09T03:51:07.968Z,164.78853
2023-01-09T03:56:09.564Z,158.63415
2023-01-09T04:01:11.276Z,153.52381
2023-01-09T04:06:12.953Z,145.96721
2023-01-09T04:11:14.987Z,147.30033
2023-01-09T04:16:16.698Z,157.14879
2023-01-09T04:21:18.493Z,149.33333
2023-01-09T04:26:20.108Z,145.96721
2023-01-09T04:31:21.732Z,144
2023-01-09T04:36:23.381Z,142.70968
2023-01-09T04:41:25.085Z,153.52381
2023-01-09T04:46:26.825Z,172.14815
2023-01-09T04:51:28.498Z,156.41379
2023-01-09T04:56:30.162Z,157.88889
2023-01-09T05:01:31.889Z,154.23891
2023-01-09T05:06:33.684Z,151.40741
2023-01-09T05:11:35.344Z,154.9589
2023-01-09T05:16:37.119Z,154.23891
2023-01-09T05:21:38.749Z,156.41379
2023-01-09T05:26:40.761Z,180.01533
2023-01-09T05:31:42.807Z,150.71141
2023-01-09T05:36:44.518Z,141.4359
2023-01-09T05:41:46.153Z,147.30033
2023-01-09T05:46:47.775Z,168.81752
2023-01-09T05:51:49.555Z,172.99628
2023-01-09T05:56:51.168Z,153.52381
2023-01-09T06:01:52.861Z,155.68385
2023-01-09T06:06:54.555Z,148.65116
2023-01-09T06:11:56.335Z,163.21708
2023-01-09T06:16:57.953Z,208.37768
2023-01-09T06:21:59.687Z,290.06742
2023-01-09T06:27:01.314Z,368.82759
2023-01-09T06:32:02.952Z,410.66667
2023-01-09T06:37:04.552Z,572.57143
2023-01-09T06:42:06.238Z,606.36559
2023-01-09T06:47:07.975Z,620.92308
2023-01-09T06:52:09.586Z,509.13761
2023-01-09T06:57:11.178Z,494
2023-01-09T07:02:12.868Z,374.76923
2023-01-09T07:07:14.496Z,387.16547
2023-01-09T07:12:16.179Z,421.51938
2023-01-09T07:17:17.832Z,519.70093
2023-01-09T07:22:19.530Z,547.92157
2023-01-09T07:27:21.148Z,525.13208
2023-01-09T07:32:22.866Z,514.37037
2023-01-09T07:37:24.530Z,572.57143
2023-01-09T07:42:26.135Z,970.66667
2023-01-09T07:47:27.775Z,1254.6383
2023-01-09T07:52:29.386Z,1997.33333
2023-01-09T07:57:31.048Z,2068.13793
2023-01-09T08:02:32.730Z,1810.66667
2023-01-09T08:07:34.387Z,1283.13043
2023-01-09T08:12:36.029Z,1869
2023-01-09T08:17:37.921Z,1484
2023-01-09T08:22:39.521Z,1064
2023-01-09T08:27:41.185Z,1151.84314
2023-01-09T08:32:42.813Z,1608.86486
2023-01-09T08:37:44.455Z,2877.33333
2023-01-09T08:42:46.020Z,1006.06897
2023-01-09T08:47:47.612Z,714
2023-01-09T08:52:49.225Z,695.21951
2023-01-09T08:57:50.867Z,519.70093
2023-01-09T09:02:52.559Z,425.25
2023-01-09T09:07:54.199Z,346.61438
2023-01-09T09:12:55.804Z,365.91781
2023-01-09T09:17:57.929Z,380.87943
2023-01-09T09:22:59.555Z,421.51938
2023-01-09T09:28:01.419Z,368.82759
2023-01-09T09:33:03.030Z,351.94702
2023-01-09T09:38:05.549Z,504
2023-01-09T09:43:07.384Z,547.92157
2023-01-09T09:48:09.033Z,509.13761
2023-01-09T09:53:10.690Z,457.33333
2023-01-09T09:58:12.438Z,393.63504
2023-01-09T10:03:18.334Z,466.0339
2023-01-09T10:08:22.164Z,377.80282
2023-01-09T10:13:23.789Z,319.60976
2023-01-09T10:18:25.458Z,286.22222
2023-01-09T10:23:27.061Z,341.41935
2023-01-09T10:28:28.689Z,290.06742
2023-01-09T10:33:30.295Z,407.15789
2023-01-09T10:38:31.978Z,384
2023-01-09T10:43:33.780Z,288.13408
2023-01-09T10:48:35.372Z,360.21622
2023-01-09T10:53:37.240Z,346.61438
2023-01-09T10:58:38.833Z,351.94702
2023-01-09T11:03:40.552Z,417.84615
2023-01-09T11:08:42.219Z,387.16547
2023-01-09T11:13:43.838Z,324.24691
2023-01-09T11:18:45.586Z,547.92157
2023-01-09T11:23:47.198Z,346.61438
2023-01-09T11:28:48.875Z,380.87943
2023-01-09T11:33:50.537Z,410.66667
2023-01-09T11:38:52.141Z,400.2963
2023-01-09T11:43:53.967Z,457.33333
2023-01-09T11:48:55.567Z,519.70093
2023-01-09T11:53:57.160Z,410.66667
2023-01-09T11:58:58.766Z,542.05825
2023-01-09T12:04:00.421Z,542.05825
2023-01-09T12:09:02.075Z,321.91411
2023-01-09T12:14:03.743Z,324.24691
2023-01-09T12:19:05.718Z,542.05825
2023-01-09T12:24:07.351Z,519.70093
2023-01-09T12:29:09.049Z,351.94702
2023-01-09T12:34:10.752Z,336.35669
2023-01-09T12:39:12.464Z,268.21053
2023-01-09T12:44:14.832Z,227.87097
2023-01-09T12:49:17.255Z,215.36564
2023-01-09T12:54:18.922Z,187.47826
2023-01-09T12:59:20.554Z,202.82353
2023-01-09T13:04:22.234Z,264.83333
2023-01-09T13:09:23.837Z,288.13408
2023-01-09T13:14:25.538Z,333.87342
2023-01-09T13:19:27.159Z,396.94118
2023-01-09T13:24:28.806Z,284.33149
2023-01-09T13:29:30.452Z,290.06742
2023-01-09T13:34:32.083Z,261.52577
2023-01-09T13:39:33.685Z,255.11111
2023-01-09T13:44:35.311Z,244.4878
2023-01-09T13:49:37.007Z,266.51309
2023-01-09T13:54:38.627Z,290.06742
2023-01-09T13:59:40.249Z,380.87943
2023-01-09T14:04:42.172Z,519.70093
2023-01-09T14:09:43.772Z,475.03448
2023-01-09T14:14:45.352Z,509.13761
2023-01-09T14:19:46.993Z,970.66667
2023-01-09T14:24:48.700Z,1565.05263
2023-01-09T14:29:50.305Z,1446.43902
2023-01-09T14:34:51.927Z,776.43243
2023-01-09T14:39:53.647Z,585.66667
2023-01-09T14:44:55.245Z,371.77778
2023-01-09T14:49:56.874Z,414.22901
2023-01-09T14:54:58.618Z,387.16547
2023-01-09T15:00:00.300Z,284.33149
2023-01-09T15:05:01.894Z,210.66667
2023-01-09T15:10:03.525Z,360.21622
2023-01-09T15:15:05.163Z,787.83562
2023-01-09T15:20:06.870Z,1106.26415
2023-01-09T15:25:08.543Z,668.70588
2023-01-09T15:30:10.209Z,338.87179
2023-01-09T15:35:11.860Z,321.91411
2023-01-09T15:40:13.531Z,250.46766
2023-01-09T15:45:15.145Z,184.625
2023-01-09T15:50:16.781Z,174.71161
2023-01-09T15:55:18.398Z,169.64103
2023-01-09T16:00:20.040Z,169.64103
2023-01-09T16:05:21.660Z,178.22053
2023-01-09T16:10:23.267Z,189.41833
2023-01-09T16:15:24.914Z,190.4
2023-01-09T16:20:26.620Z,191.38956
2023-01-09T16:25:28.262Z,167.18841
2023-01-09T16:30:29.894Z,167.18841
2023-01-09T16:35:31.562Z,234.56604
2023-01-09T16:40:33.173Z,266.51309
2023-01-09T16:45:34.870Z,253.54774
2023-01-09T16:50:36.692Z,417.84615
2023-01-09T16:55:38.325Z,660.27907
2023-01-09T17:00:39.985Z,1084.74074
2023-01-09T17:05:41.729Z,1106.26415
2023-01-09T17:10:43.368Z,1484
2023-01-09T17:15:44.953Z,1608.86486
2023-01-09T17:20:46.578Z,921.77778
2023-01-09T17:25:48.328Z,1176
2023-01-09T17:30:49.928Z,1106.26415
2023-01-09T17:35:51.570Z,937.54839
2023-01-09T17:40:53.928Z,1201.14286
2023-01-09T17:45:55.572Z,2144
2023-01-09T17:50:57.201Z,2068.13793
2023-01-09T17:55:58.836Z,5544
2023-01-09T18:01:00.528Z,7644
2023-01-09T18:06:02.229Z,6788.44444
2023-01-09T18:11:03.866Z,2510.66667
2023-01-09T18:16:05.720Z,4682.46154
2023-01-09T18:21:07.387Z,2144
2023-01-09T18:26:09.131Z,2408
2023-01-09T18:31:10.818Z,3186.10526
2023-01-09T18:36:12.426Z,2877.33333
2023-01-09T18:41:14.024Z,2313.23077
2023-01-09T18:46:15.749Z,1997.33333
2023-01-09T18:51:17.453Z,2510.66667
2023-01-09T18:56:19.055Z,6788.44444
2023-01-09T19:01:20.772Z,30744
2023-01-09T19:06:22.660Z,61544
2023-01-09T19:11:24.313Z,61544
2023-01-09T19:16:26.059Z,20477.33333
2023-01-09T19:21:27.730Z,30744
2023-01-09T19:26:29.360Z,61544
2023-01-09T19:31:31.112Z,61544
2023-01-09T19:36:32.784Z,61544
2023-01-09T19:41:34.473Z,7644
2023-01-09T19:46:36.108Z,20477.33333
2023-01-09T19:51:37.791Z,61544
2023-01-09T19:56:39.719Z,61544
2023-01-09T20:01:41.584Z,6788.44444
2023-01-09T20:06:43.294Z,6788.44444
2023-01-09T20:11:45.117Z,12264
2023-01-09T20:16:47.081Z,4344
2023-01-09T20:21:48.787Z,2744
2023-01-09T20:26:50.404Z,2068.13793
2023-01-09T20:31:52.093Z,2068.13793
2023-01-09T20:36:53.821Z,3024
2023-01-09T20:41:55.519Z,2144
2023-01-09T20:46:57.258Z,2877.33333
2023-01-09T20:51:59.051Z,1931.09677
2023-01-09T20:57:00.754Z,636.13483
2023-01-09T21:02:02.402Z,636.13483
2023-01-09T21:07:04.023Z,425.25
2023-01-09T21:12:05.622Z,2408
2023-01-09T21:17:07.248Z,5077.33333
2023-01-09T21:22:08.872Z,30744
2023-01-09T21:27:10.701Z,15344
2023-01-09T21:32:12.285Z,1655.11111
2023-01-09T21:37:13.926Z,2408
2023-01-09T21:42:15.528Z,2744
2023-01-09T21:47:17.318Z,1254.6383
2023-01-09T21:52:18.903Z,1312.88889
2023-01-09T21:57:20.599Z,2744
2023-01-09T22:02:22.217Z,1024.70175
2023-01-09T22:07:23.884Z,660.27907
2023-01-09T22:12:25.495Z,489.13274
2023-01-09T22:17:27.108Z,461.64706
2023-01-09T22:22:28.779Z,585.66667
2023-01-09T22:27:30.471Z,1024.70175
2023-01-09T22:32:32.081Z,1151.84314
2023-01-09T22:37:33.730Z,1084.74074
2023-01-09T22:42:35.364Z,1446.43902
2023-01-09T22:47:37.022Z,599.31915
2023-01-09T22:52:38.624Z,560
2023-01-09T22:57:40.242Z,714
2023-01-09T23:02:42.047Z,585.66667
2023-01-09T23:07:43.764Z,547.92157
2023-01-09T23:12:45.431Z,276.97297
2023-01-09T23:17:47.230Z,294
2023-01-09T23:22:48.852Z,344
2023-01-09T23:27:50.479Z,494
2023-01-09T23:32:52.148Z,628.44444
2023-01-09T23:37:53.895Z,393.63504
2023-01-09T23:42:55.542Z,396.94118
2023-01-09T23:47:57.179Z,407.15789
2023-01-09T23:52:58.804Z,498.95495
2023-01-09T23:58:00.420Z,733.74359
